createdAt,value
2017-03-16T00:00:08.736Z,0
2017-03-16T00:01:18.985Z,0
2017-03-16T00:02:28.924Z,0
2017-03-16T00:03:39.433Z,0
2017-03-16T00:04:49.686Z,0
2017-03-16T00:05:59.935Z,0
2017-03-16T00:07:09.870Z,0
2017-03-16T00:08:19.802Z,0
2017-03-16T00:09:30.103Z,0
2017-03-16T00:10:40.045Z,0
2017-03-16T00:11:49.982Z,0
2017-03-16T00:12:59.914Z,0
2017-03-16T00:14:09.852Z,0
2017-03-16T00:15:20.103Z,0
2017-03-16T00:16:30.388Z,0
2017-03-16T00:17:40.327Z,0
2017-03-16T00:18:50.587Z,0
2017-03-16T00:20:00.836Z,0
2017-03-16T00:21:11.088Z,0
2017-03-16T00:22:21.335Z,0
2017-03-16T00:23:31.587Z,0
2017-03-16T00:24:41.836Z,0
2017-03-16T00:25:52.086Z,0
2017-03-16T00:27:02.336Z,0
2017-03-16T00:28:11.956Z,0
2017-03-16T00:29:22.205Z,0
2017-03-16T00:30:32.154Z,0
2017-03-16T00:31:42.089Z,0
2017-03-16T00:32:52.331Z,0
2017-03-16T00:34:02.265Z,0
2017-03-16T00:35:12.515Z,0
2017-03-16T00:36:22.768Z,0
2017-03-16T00:37:32.386Z,0
2017-03-16T00:38:42.634Z,0
2017-03-16T00:39:52.878Z,0
2017-03-16T00:41:03.125Z,0
2017-03-16T00:42:13.068Z,0
2017-03-16T00:43:23.318Z,0
2017-03-16T00:44:33.258Z,0
2017-03-16T00:45:43.533Z,0
2017-03-16T00:46:53.780Z,0
2017-03-16T00:48:04.027Z,0
2017-03-16T00:49:13.957Z,0
2017-03-16T00:50:23.577Z,0
2017-03-16T00:51:33.824Z,0
2017-03-16T00:52:43.757Z,0
2017-03-16T00:53:54.002Z,0
2017-03-16T00:55:04.253Z,0
2017-03-16T00:56:14.187Z,0
2017-03-16T00:57:24.437Z,0
2017-03-16T00:58:34.690Z,0
2017-03-16T00:59:44.946Z,0
2017-03-16T01:00:55.197Z,0
2017-03-16T01:02:05.130Z,0
2017-03-16T01:03:15.379Z,0
2017-03-16T01:04:25.630Z,0
2017-03-16T01:05:35.882Z,0
2017-03-16T01:06:46.129Z,0
2017-03-16T01:07:56.379Z,0
2017-03-16T01:09:06.335Z,0
2017-03-16T01:10:16.593Z,0
2017-03-16T01:11:26.853Z,0
2017-03-16T01:12:36.786Z,0
2017-03-16T01:13:47.045Z,0
2017-03-16T01:14:57.295Z,0
2017-03-16T01:16:07.549Z,0
2017-03-16T01:17:17.496Z,0
2017-03-16T01:18:27.747Z,0
2017-03-16T01:19:38.001Z,0
2017-03-16T01:20:47.623Z,0
2017-03-16T01:21:57.880Z,0
2017-03-16T01:23:08.137Z,0
2017-03-16T01:24:18.393Z,0
2017-03-16T01:25:28.641Z,0
2017-03-16T01:26:38.887Z,0
2017-03-16T01:27:49.135Z,0
2017-03-16T01:28:59.399Z,0
2017-03-16T01:30:09.334Z,0
2017-03-16T01:31:19.273Z,0
2017-03-16T01:32:29.522Z,0
2017-03-16T01:33:39.768Z,0
2017-03-16T01:34:50.024Z,0
2017-03-16T01:36:00.275Z,0
2017-03-16T01:37:10.215Z,0
2017-03-16T01:38:20.464Z,0
2017-03-16T01:39:30.718Z,0
2017-03-16T01:40:40.968Z,0
2017-03-16T01:41:51.217Z,0
2017-03-16T01:43:01.481Z,0
2017-03-16T01:44:11.422Z,0
2017-03-16T01:45:21.675Z,0
2017-03-16T01:46:31.928Z,0
2017-03-16T01:47:42.187Z,0
2017-03-16T01:48:52.436Z,0
2017-03-16T01:50:02.378Z,0
2017-03-16T01:51:12.009Z,0
2017-03-16T01:52:22.268Z,0
2017-03-16T01:53:32.523Z,0
2017-03-16T01:54:42.777Z,0
2017-03-16T01:55:53.026Z,0
2017-03-16T01:57:03.272Z,0
2017-03-16T01:58:13.211Z,0
2017-03-16T01:59:23.461Z,0
2017-03-16T02:00:33.710Z,0
2017-03-16T02:01:43.647Z,0
2017-03-16T02:02:53.917Z,0
2017-03-16T02:04:04.170Z,0
2017-03-16T02:05:14.107Z,0
2017-03-16T02:06:24.360Z,0
2017-03-16T02:07:34.615Z,0
2017-03-16T02:08:44.865Z,0
2017-03-16T02:09:54.801Z,0
2017-03-16T02:11:05.050Z,0
2017-03-16T02:12:15.304Z,0
2017-03-16T02:13:25.555Z,0
2017-03-16T02:14:35.873Z,0
2017-03-16T02:15:45.807Z,0
2017-03-16T02:16:56.059Z,0
2017-03-16T02:18:05.993Z,0
2017-03-16T02:19:16.247Z,0
2017-03-16T02:20:26.501Z,0
2017-03-16T02:21:36.756Z,0
2017-03-16T02:22:47.002Z,0
2017-03-16T02:23:57.247Z,0
2017-03-16T02:25:07.497Z,0
2017-03-16T02:26:17.434Z,0
2017-03-16T02:27:27.687Z,0
2017-03-16T02:28:37.938Z,0
2017-03-16T02:29:47.870Z,0
2017-03-16T02:30:58.120Z,0
2017-03-16T02:32:08.378Z,0
2017-03-16T02:33:18.628Z,0
2017-03-16T02:34:28.905Z,0
2017-03-16T02:35:38.842Z,0
2017-03-16T02:36:48.778Z,0
2017-03-16T02:37:59.033Z,0
2017-03-16T02:39:09.283Z,0
2017-03-16T02:40:19.534Z,0
2017-03-16T02:41:29.475Z,0
2017-03-16T02:42:39.723Z,0
2017-03-16T02:43:49.969Z,0
2017-03-16T02:45:00.225Z,0
2017-03-16T02:46:10.163Z,0
2017-03-16T02:47:20.410Z,0
2017-03-16T02:48:30.665Z,0
2017-03-16T02:49:40.917Z,0
2017-03-16T02:50:51.171Z,0
2017-03-16T02:52:01.453Z,0
2017-03-16T02:53:11.710Z,0
2017-03-16T02:54:21.954Z,0
2017-03-16T02:55:32.209Z,0
2017-03-16T02:56:42.458Z,0
2017-03-16T02:57:52.716Z,0
2017-03-16T02:59:02.964Z,0
2017-03-16T03:00:12.902Z,0
2017-03-16T03:01:23.159Z,0
2017-03-16T03:02:33.410Z,0
2017-03-16T03:03:43.666Z,0
2017-03-16T03:04:52.982Z,0
2017-03-16T03:06:03.228Z,0
2017-03-16T03:07:13.480Z,0
2017-03-16T03:08:23.418Z,0
2017-03-16T03:09:33.673Z,0
2017-03-16T03:10:43.920Z,0
2017-03-16T03:11:54.169Z,0
2017-03-16T03:13:04.421Z,0
2017-03-16T03:14:14.360Z,0
2017-03-16T03:15:24.298Z,0
2017-03-16T03:16:34.547Z,0
2017-03-16T03:17:44.486Z,0
2017-03-16T03:18:54.740Z,0
2017-03-16T03:20:04.992Z,0
2017-03-16T03:21:14.933Z,0
2017-03-16T03:22:24.891Z,0
2017-03-16T03:23:35.146Z,0
2017-03-16T03:24:45.397Z,0
2017-03-16T03:25:55.654Z,0
2017-03-16T03:27:05.904Z,0
2017-03-16T03:28:16.151Z,0
2017-03-16T03:29:26.400Z,0
2017-03-16T03:30:36.645Z,0
2017-03-16T03:31:46.888Z,0
2017-03-16T03:32:57.132Z,0
2017-03-16T03:34:07.095Z,0
2017-03-16T03:35:17.346Z,0
2017-03-16T03:36:27.595Z,0
2017-03-16T03:37:37.850Z,0
2017-03-16T03:38:47.788Z,0
2017-03-16T03:39:58.047Z,0
2017-03-16T03:41:08.301Z,0
2017-03-16T03:42:17.930Z,0
2017-03-16T03:43:27.562Z,0
2017-03-16T03:44:37.188Z,0
2017-03-16T03:45:47.121Z,0
2017-03-16T03:46:57.371Z,0
2017-03-16T03:48:07.618Z,0
2017-03-16T03:49:17.883Z,0
2017-03-16T03:50:28.131Z,0
2017-03-16T03:51:37.442Z,0
2017-03-16T03:52:47.689Z,0
2017-03-16T03:53:57.940Z,0
2017-03-16T03:55:07.883Z,0
2017-03-16T03:56:18.135Z,0
2017-03-16T03:57:28.069Z,0
2017-03-16T03:58:38.317Z,0
2017-03-16T03:59:48.561Z,0
2017-03-16T04:00:58.501Z,0
2017-03-16T04:02:08.750Z,0
2017-03-16T04:03:18.999Z,0
2017-03-16T04:04:29.254Z,0
2017-03-16T04:05:39.508Z,0
2017-03-16T04:06:49.757Z,0
2017-03-16T04:08:00.020Z,0
2017-03-16T04:09:10.265Z,0
2017-03-16T04:10:20.520Z,0
2017-03-16T04:11:30.778Z,0
2017-03-16T04:12:40.718Z,0
2017-03-16T04:13:50.971Z,0
2017-03-16T04:15:01.223Z,0
2017-03-16T04:16:11.161Z,0
2017-03-16T04:17:21.409Z,0
2017-03-16T04:18:31.659Z,0
2017-03-16T04:19:41.622Z,0
2017-03-16T04:20:51.873Z,0
2017-03-16T04:22:01.827Z,0
2017-03-16T04:23:12.078Z,0
2017-03-16T04:24:22.337Z,0
2017-03-16T04:25:32.585Z,0
2017-03-16T04:26:42.521Z,0
2017-03-16T04:27:52.812Z,0
2017-03-16T04:29:03.064Z,0
2017-03-16T04:30:13.000Z,0
2017-03-16T04:31:22.932Z,0
2017-03-16T04:32:32.880Z,0
2017-03-16T04:33:42.814Z,0
2017-03-16T04:34:52.763Z,0
2017-03-16T04:36:03.015Z,0
2017-03-16T04:37:13.267Z,0
2017-03-16T04:38:23.203Z,0
2017-03-16T04:39:33.455Z,0
2017-03-16T04:40:43.708Z,0
2017-03-16T04:41:53.967Z,0
2017-03-16T04:43:03.904Z,0
2017-03-16T04:44:14.159Z,0
2017-03-16T04:45:24.420Z,0
2017-03-16T04:46:34.676Z,0
2017-03-16T04:47:44.924Z,0
2017-03-16T04:48:54.861Z,0
2017-03-16T04:50:05.117Z,0
2017-03-16T04:51:15.364Z,0
2017-03-16T04:52:25.612Z,0
2017-03-16T04:53:35.866Z,0
2017-03-16T04:54:45.799Z,0
2017-03-16T04:55:56.052Z,0
2017-03-16T04:57:05.677Z,0
2017-03-16T04:58:15.924Z,0
2017-03-16T04:59:26.168Z,0
2017-03-16T05:00:36.424Z,0
2017-03-16T05:01:46.361Z,0
2017-03-16T05:02:56.612Z,0
2017-03-16T05:04:06.236Z,0
2017-03-16T05:05:16.485Z,0
2017-03-16T05:06:26.418Z,0
2017-03-16T05:07:36.358Z,0
2017-03-16T05:08:46.625Z,0
2017-03-16T05:09:56.569Z,0
2017-03-16T05:11:06.824Z,0
2017-03-16T05:12:16.765Z,0
2017-03-16T05:13:26.711Z,0
2017-03-16T05:14:36.969Z,0
2017-03-16T05:15:46.908Z,0
2017-03-16T05:16:57.156Z,0
2017-03-16T05:18:06.790Z,0
2017-03-16T05:19:17.052Z,0
2017-03-16T05:20:26.995Z,0
2017-03-16T05:21:36.618Z,0
2017-03-16T05:22:46.873Z,5
2017-03-16T05:23:57.136Z,5
2017-03-16T05:25:07.080Z,5
2017-03-16T05:26:16.707Z,5
2017-03-16T05:27:26.654Z,5
2017-03-16T05:28:36.920Z,5
2017-03-16T05:29:47.178Z,5
2017-03-16T05:30:57.440Z,5
2017-03-16T05:32:07.694Z,10
2017-03-16T05:33:17.636Z,10
2017-03-16T05:34:27.887Z,10
2017-03-16T05:35:37.829Z,15
2017-03-16T05:36:48.090Z,15
2017-03-16T05:37:58.346Z,15
2017-03-16T05:39:08.601Z,15
2017-03-16T05:40:18.852Z,20
2017-03-16T05:41:29.128Z,20
2017-03-16T05:42:39.382Z,20
2017-03-16T05:43:49.642Z,20
2017-03-16T05:44:59.576Z,20
2017-03-16T05:46:09.829Z,25
2017-03-16T05:47:20.086Z,25
2017-03-16T05:48:30.348Z,25
2017-03-16T05:49:40.288Z,25
2017-03-16T05:50:50.233Z,25
2017-03-16T05:52:00.172Z,25
2017-03-16T05:53:10.431Z,30
2017-03-16T05:54:20.691Z,30
2017-03-16T05:55:30.939Z,30
2017-03-16T05:56:40.875Z,30
2017-03-16T05:57:50.825Z,30
2017-03-16T05:59:01.082Z,30
2017-03-16T06:00:11.021Z,30
2017-03-16T06:01:21.280Z,30
2017-03-16T06:02:31.534Z,30
2017-03-16T06:03:41.791Z,30
2017-03-16T06:04:51.734Z,30
2017-03-16T06:06:01.986Z,35
2017-03-16T06:07:12.240Z,35
2017-03-16T06:08:22.496Z,35
2017-03-16T06:09:32.445Z,35
2017-03-16T06:10:42.387Z,35
2017-03-16T06:11:52.323Z,35
2017-03-16T06:13:02.579Z,40
2017-03-16T06:14:12.533Z,40
2017-03-16T06:15:22.779Z,45
2017-03-16T06:16:32.727Z,45
2017-03-16T06:17:42.984Z,45
2017-03-16T06:18:53.252Z,50
2017-03-16T06:20:03.198Z,50
2017-03-16T06:21:13.461Z,50
2017-03-16T06:22:23.715Z,50
2017-03-16T06:23:33.984Z,50
2017-03-16T06:24:44.232Z,50
2017-03-16T06:25:54.180Z,50
2017-03-16T06:27:04.433Z,50
2017-03-16T06:28:14.697Z,50
2017-03-16T06:29:24.649Z,50
2017-03-16T06:30:34.913Z,50
2017-03-16T06:31:44.853Z,50
2017-03-16T06:32:55.118Z,55
2017-03-16T06:34:05.063Z,55
2017-03-16T06:35:15.319Z,55
2017-03-16T06:36:25.262Z,55
2017-03-16T06:37:34.884Z,55
2017-03-16T06:38:45.145Z,55
2017-03-16T06:39:55.090Z,60
2017-03-16T06:41:05.348Z,60
2017-03-16T06:42:15.289Z,65
2017-03-16T06:43:25.235Z,65
2017-03-16T06:44:35.181Z,65
2017-03-16T06:45:45.435Z,70
2017-03-16T06:46:55.381Z,70
2017-03-16T06:48:05.643Z,70
2017-03-16T06:49:15.908Z,70
2017-03-16T06:50:26.158Z,75
2017-03-16T06:51:36.416Z,75
2017-03-16T06:52:46.672Z,80
2017-03-16T06:53:56.306Z,80
2017-03-16T06:55:06.563Z,85
2017-03-16T06:56:16.851Z,90
2017-03-16T06:57:26.786Z,95
2017-03-16T06:58:37.053Z,105
2017-03-16T06:59:47.306Z,105
2017-03-16T07:00:57.575Z,105
2017-03-16T07:02:07.825Z,105
2017-03-16T07:03:17.774Z,105
2017-03-16T07:04:28.192Z,110
2017-03-16T07:05:38.461Z,120
2017-03-16T07:06:48.714Z,125
2017-03-16T07:07:58.979Z,135
2017-03-16T07:09:08.921Z,130
2017-03-16T07:10:19.596Z,130
2017-03-16T07:11:29.541Z,130
2017-03-16T07:12:39.801Z,130
2017-03-16T07:13:50.062Z,130
2017-03-16T07:15:00.010Z,130
2017-03-16T07:16:12.272Z,135
2017-03-16T07:17:22.215Z,135
2017-03-16T07:18:32.474Z,135
2017-03-16T07:19:42.735Z,135
2017-03-16T07:20:52.987Z,135
2017-03-16T07:22:03.260Z,135
2017-03-16T07:23:13.520Z,130
2017-03-16T07:24:23.781Z,130
2017-03-16T07:25:34.038Z,130
2017-03-16T07:26:44.294Z,125
2017-03-16T07:27:54.554Z,130
2017-03-16T07:29:04.820Z,135
2017-03-16T07:30:15.076Z,140
2017-03-16T07:31:25.015Z,140
2017-03-16T07:32:34.950Z,150
2017-03-16T07:33:44.900Z,155
2017-03-16T07:34:54.837Z,155
2017-03-16T07:36:04.777Z,155
2017-03-16T07:37:14.733Z,155
2017-03-16T07:38:24.993Z,160
2017-03-16T07:39:34.941Z,165
2017-03-16T07:40:44.879Z,175
2017-03-16T07:41:55.133Z,185
2017-03-16T07:43:05.076Z,190
2017-03-16T07:44:15.349Z,190
2017-03-16T07:45:25.611Z,185
2017-03-16T07:46:35.557Z,180
2017-03-16T07:47:45.815Z,170
2017-03-16T07:48:56.080Z,165
2017-03-16T07:50:05.396Z,160
2017-03-16T07:51:15.656Z,160
2017-03-16T07:52:25.600Z,165
2017-03-16T07:53:35.860Z,175
2017-03-16T07:54:45.809Z,185
2017-03-16T07:55:56.077Z,195
2017-03-16T07:57:06.332Z,200
2017-03-16T07:58:16.276Z,205
2017-03-16T07:59:26.540Z,210
2017-03-16T08:00:36.482Z,210
2017-03-16T08:01:46.733Z,205
2017-03-16T08:02:56.681Z,195
2017-03-16T08:04:06.941Z,190
2017-03-16T08:05:16.916Z,195
2017-03-16T08:06:27.170Z,190
2017-03-16T08:07:37.427Z,190
2017-03-16T08:08:47.691Z,190
2017-03-16T08:09:57.637Z,195
2017-03-16T08:11:07.995Z,210
2017-03-16T08:12:18.262Z,215
2017-03-16T08:13:28.519Z,220
2017-03-16T08:14:38.160Z,230
2017-03-16T08:15:48.417Z,235
2017-03-16T08:16:58.675Z,235
2017-03-16T08:18:08.625Z,240
2017-03-16T08:19:18.881Z,250
2017-03-16T08:20:29.137Z,250
2017-03-16T08:21:39.388Z,250
2017-03-16T08:22:49.333Z,240
2017-03-16T08:23:59.609Z,235
2017-03-16T08:25:09.861Z,225
2017-03-16T08:26:20.111Z,220
2017-03-16T08:27:30.362Z,215
2017-03-16T08:28:40.619Z,215
2017-03-16T08:29:50.560Z,215
2017-03-16T08:31:00.817Z,215
2017-03-16T08:32:11.097Z,215
2017-03-16T08:33:21.362Z,215
2017-03-16T08:34:31.615Z,215
2017-03-16T08:35:41.906Z,210
2017-03-16T08:36:52.162Z,210
2017-03-16T08:38:02.102Z,210
2017-03-16T08:39:12.076Z,205
2017-03-16T08:40:22.017Z,210
2017-03-16T08:41:32.277Z,215
2017-03-16T08:42:42.539Z,210
2017-03-16T08:43:52.806Z,215
2017-03-16T08:45:02.747Z,215
2017-03-16T08:46:12.693Z,210
2017-03-16T08:47:22.945Z,205
2017-03-16T08:48:33.198Z,200
2017-03-16T08:49:43.138Z,205
2017-03-16T08:50:53.396Z,215
2017-03-16T08:52:03.336Z,225
2017-03-16T08:53:12.965Z,230
2017-03-16T08:54:23.216Z,220
2017-03-16T08:55:33.473Z,215
2017-03-16T08:56:43.729Z,215
2017-03-16T08:57:53.667Z,215
2017-03-16T08:59:03.920Z,220
2017-03-16T09:00:14.176Z,230
2017-03-16T09:01:24.434Z,230
2017-03-16T09:02:34.685Z,225
2017-03-16T09:03:44.626Z,230
2017-03-16T09:04:54.568Z,240
2017-03-16T09:06:04.822Z,255
2017-03-16T09:07:14.134Z,265
2017-03-16T09:08:23.763Z,255
2017-03-16T09:09:34.019Z,250
2017-03-16T09:10:43.966Z,245
2017-03-16T09:11:54.224Z,250
2017-03-16T09:13:04.491Z,240
2017-03-16T09:14:13.800Z,240
2017-03-16T09:15:23.748Z,245
2017-03-16T09:16:33.688Z,260
2017-03-16T09:17:43.322Z,270
2017-03-16T09:18:53.273Z,275
2017-03-16T09:20:03.526Z,290
2017-03-16T09:21:13.787Z,300
2017-03-16T09:22:23.727Z,305
2017-03-16T09:23:33.991Z,315
2017-03-16T09:24:43.934Z,315
2017-03-16T09:25:54.187Z,305
2017-03-16T09:27:04.445Z,325
2017-03-16T09:28:14.704Z,345
2017-03-16T09:29:24.643Z,385
2017-03-16T09:30:34.588Z,395
2017-03-16T09:31:44.844Z,365
2017-03-16T09:32:55.097Z,320
2017-03-16T09:34:04.734Z,285
2017-03-16T09:35:14.990Z,285
2017-03-16T09:36:25.242Z,290
2017-03-16T09:37:35.181Z,300
2017-03-16T09:38:44.814Z,305
2017-03-16T09:39:54.762Z,315
2017-03-16T09:41:05.022Z,315
2017-03-16T09:42:14.964Z,310
2017-03-16T09:43:24.901Z,320
2017-03-16T09:44:34.841Z,330
2017-03-16T09:45:45.099Z,325
2017-03-16T09:46:55.354Z,325
2017-03-16T09:48:05.302Z,330
2017-03-16T09:49:15.563Z,330
2017-03-16T09:50:25.822Z,300
2017-03-16T09:51:36.079Z,275
2017-03-16T09:52:46.328Z,265
2017-03-16T09:53:56.582Z,275
2017-03-16T09:55:06.226Z,275
2017-03-16T09:56:16.170Z,275
2017-03-16T09:57:26.421Z,280
2017-03-16T09:58:36.372Z,285
2017-03-16T09:59:46.634Z,290
2017-03-16T10:00:56.894Z,290
2017-03-16T10:02:07.154Z,305
2017-03-16T10:03:17.103Z,310
2017-03-16T10:04:27.350Z,310
2017-03-16T10:05:37.292Z,315
2017-03-16T10:06:47.264Z,330
2017-03-16T10:07:56.572Z,340
2017-03-16T10:09:06.203Z,345
2017-03-16T10:10:16.143Z,340
2017-03-16T10:11:26.397Z,335
2017-03-16T10:12:36.660Z,335
2017-03-16T10:13:46.608Z,350
2017-03-16T10:14:56.546Z,360
2017-03-16T10:16:06.497Z,365
2017-03-16T10:17:16.751Z,365
2017-03-16T10:18:26.689Z,360
2017-03-16T10:19:36.633Z,360
2017-03-16T10:20:46.891Z,350
2017-03-16T10:21:56.832Z,355
2017-03-16T10:23:07.093Z,365
2017-03-16T10:24:17.348Z,390
2017-03-16T10:25:27.597Z,405
2017-03-16T10:26:37.857Z,415
2017-03-16T10:27:47.798Z,435
2017-03-16T10:28:58.051Z,445
2017-03-16T10:30:08.312Z,450
2017-03-16T10:31:18.255Z,450
2017-03-16T10:32:28.196Z,475
2017-03-16T10:33:38.451Z,480
2017-03-16T10:34:48.429Z,475
2017-03-16T10:35:58.373Z,495
2017-03-16T10:37:08.320Z,495
2017-03-16T10:38:17.985Z,485
2017-03-16T10:39:27.925Z,465
2017-03-16T10:40:37.239Z,445
2017-03-16T10:41:47.188Z,445
2017-03-16T10:42:57.124Z,450
2017-03-16T10:44:07.066Z,475
2017-03-16T10:45:17.325Z,485
2017-03-16T10:46:27.265Z,475
2017-03-16T10:47:36.897Z,515
2017-03-16T10:48:46.838Z,565
2017-03-16T10:49:57.092Z,555
2017-03-16T10:51:07.353Z,530
2017-03-16T10:52:17.614Z,525
2017-03-16T10:53:27.559Z,520
2017-03-16T10:54:37.815Z,545
2017-03-16T10:55:47.442Z,565
2017-03-16T10:56:57.395Z,585
2017-03-16T10:58:07.654Z,580
2017-03-16T10:59:17.601Z,565
2017-03-16T11:00:27.870Z,545
2017-03-16T11:01:38.123Z,560
2017-03-16T11:02:48.379Z,545
2017-03-16T11:03:58.641Z,595
2017-03-16T11:05:08.286Z,570
2017-03-16T11:06:18.232Z,540
2017-03-16T11:07:28.492Z,545
2017-03-16T11:08:38.432Z,520
2017-03-16T11:09:48.401Z,505
2017-03-16T11:10:58.349Z,470
2017-03-16T11:12:07.663Z,470
2017-03-16T11:13:17.914Z,500
2017-03-16T11:14:28.170Z,515
2017-03-16T11:15:38.427Z,605
2017-03-16T11:16:48.371Z,635
2017-03-16T11:17:57.998Z,630
2017-03-16T11:19:08.255Z,665
2017-03-16T11:20:18.198Z,660
2017-03-16T11:21:28.171Z,705
2017-03-16T11:22:38.438Z,765
2017-03-16T11:23:48.378Z,815
2017-03-16T11:24:58.017Z,720
2017-03-16T11:26:08.282Z,780
2017-03-16T11:27:18.536Z,715
2017-03-16T11:28:28.167Z,740
2017-03-16T11:29:38.435Z,800
2017-03-16T11:30:48.697Z,700
2017-03-16T11:31:58.639Z,740
2017-03-16T11:33:07.958Z,660
2017-03-16T11:34:18.211Z,625
2017-03-16T11:35:28.162Z,585
2017-03-16T11:36:38.425Z,580
2017-03-16T11:37:48.369Z,640
2017-03-16T11:38:58.000Z,575
2017-03-16T11:40:07.628Z,590
2017-03-16T11:41:17.890Z,655
2017-03-16T11:42:28.150Z,745
2017-03-16T11:43:38.408Z,740
2017-03-16T11:44:48.348Z,735
2017-03-16T11:45:58.609Z,760
2017-03-16T11:47:08.556Z,765
2017-03-16T11:48:18.815Z,745
2017-03-16T11:49:28.765Z,735
2017-03-16T11:50:38.400Z,720
2017-03-16T11:51:48.347Z,720
2017-03-16T11:52:58.601Z,730
2017-03-16T11:54:08.862Z,705
2017-03-16T11:55:18.813Z,715
2017-03-16T11:56:28.754Z,750
2017-03-16T11:57:38.706Z,755
2017-03-16T11:58:48.338Z,775
2017-03-16T11:59:57.658Z,760
2017-03-16T12:01:07.917Z,810
2017-03-16T12:02:18.178Z,790
2017-03-16T12:03:28.118Z,705
2017-03-16T12:04:38.381Z,670
2017-03-16T12:05:48.341Z,665
2017-03-16T12:06:58.286Z,695
2017-03-16T12:08:08.552Z,725
2017-03-16T12:09:18.817Z,740
2017-03-16T12:10:29.074Z,760
2017-03-16T12:11:39.046Z,750
2017-03-16T12:12:49.309Z,725
2017-03-16T12:13:59.564Z,755
2017-03-16T12:15:09.830Z,790
2017-03-16T12:16:20.091Z,790
2017-03-16T12:17:29.722Z,800
2017-03-16T12:18:39.982Z,850
2017-03-16T12:19:50.243Z,790
2017-03-16T12:21:00.503Z,790
2017-03-16T12:22:10.767Z,850
2017-03-16T12:23:21.024Z,755
2017-03-16T12:24:31.303Z,780
2017-03-16T12:25:41.248Z,740
2017-03-16T12:26:51.201Z,630
2017-03-16T12:28:01.462Z,645
2017-03-16T12:29:11.724Z,780
2017-03-16T12:30:21.987Z,825
2017-03-16T12:31:32.251Z,900
2017-03-16T12:32:42.196Z,865
2017-03-16T12:33:52.149Z,845
2017-03-16T12:35:02.097Z,770
2017-03-16T12:36:11.731Z,775
2017-03-16T12:37:21.710Z,610
2017-03-16T12:38:31.966Z,615
2017-03-16T12:39:41.600Z,685
2017-03-16T12:40:51.860Z,625
2017-03-16T12:42:02.121Z,595
2017-03-16T12:43:12.379Z,570
2017-03-16T12:44:21.697Z,540
2017-03-16T12:45:31.333Z,530
2017-03-16T12:46:41.600Z,525
2017-03-16T12:47:51.861Z,520
2017-03-16T12:49:02.118Z,515
2017-03-16T12:50:12.381Z,525
2017-03-16T12:51:22.642Z,615
2017-03-16T12:52:32.905Z,755
2017-03-16T12:53:42.851Z,965
2017-03-16T12:54:52.803Z,940
2017-03-16T12:56:03.063Z,990
2017-03-16T12:57:13.323Z,725
2017-03-16T12:58:23.266Z,830
2017-03-16T12:59:33.528Z,1035
2017-03-16T13:00:43.797Z,545
2017-03-16T13:01:54.057Z,505
2017-03-16T13:03:04.312Z,485
2017-03-16T13:04:14.577Z,465
2017-03-16T13:05:24.525Z,475
2017-03-16T13:06:34.155Z,485
2017-03-16T13:07:44.096Z,525
2017-03-16T13:08:54.360Z,930
2017-03-16T13:10:04.620Z,725
2017-03-16T13:11:14.256Z,1105
2017-03-16T13:12:24.514Z,1095
2017-03-16T13:13:34.768Z,865
2017-03-16T13:14:44.718Z,1045
2017-03-16T13:15:54.979Z,925
2017-03-16T13:17:04.924Z,900
2017-03-16T13:18:14.869Z,885
2017-03-16T13:19:24.496Z,925
2017-03-16T13:20:34.755Z,895
2017-03-16T13:21:45.023Z,760
2017-03-16T13:22:54.975Z,740
2017-03-16T13:24:04.923Z,645
2017-03-16T13:25:14.553Z,650
2017-03-16T13:26:24.502Z,675
2017-03-16T13:27:34.758Z,740
2017-03-16T13:28:45.016Z,700
2017-03-16T13:29:55.274Z,695
2017-03-16T13:31:05.536Z,740
2017-03-16T13:32:15.485Z,700
2017-03-16T13:33:25.427Z,730
2017-03-16T13:34:35.691Z,710
2017-03-16T13:35:45.954Z,670
2017-03-16T13:36:56.218Z,590
2017-03-16T13:38:06.480Z,545
2017-03-16T13:39:16.740Z,530
2017-03-16T13:40:27.010Z,540
2017-03-16T13:41:37.429Z,535
2017-03-16T13:42:47.416Z,530
2017-03-16T13:43:57.674Z,500
2017-03-16T13:45:07.937Z,490
2017-03-16T13:46:18.198Z,530
2017-03-16T13:47:27.519Z,570
2017-03-16T13:48:37.776Z,620
2017-03-16T13:49:48.073Z,625
2017-03-16T13:50:58.018Z,615
2017-03-16T13:52:07.338Z,585
2017-03-16T13:53:19.605Z,545
2017-03-16T13:54:29.555Z,540
2017-03-16T13:55:39.820Z,525
2017-03-16T13:56:50.116Z,530
2017-03-16T13:58:00.063Z,535
2017-03-16T13:59:10.323Z,550
2017-03-16T14:00:20.586Z,560
2017-03-16T14:01:30.842Z,565
2017-03-16T14:02:41.105Z,605
2017-03-16T14:03:51.064Z,795
2017-03-16T14:05:01.012Z,710
2017-03-16T14:06:10.961Z,720
2017-03-16T14:07:21.222Z,740
2017-03-16T14:08:31.488Z,695
2017-03-16T14:09:41.753Z,645
2017-03-16T14:10:52.021Z,655
2017-03-16T14:12:02.286Z,670
2017-03-16T14:13:12.546Z,615
2017-03-16T14:14:22.499Z,600
2017-03-16T14:15:32.770Z,835
2017-03-16T14:16:42.718Z,850
2017-03-16T14:17:52.981Z,900
2017-03-16T14:19:03.246Z,965
2017-03-16T14:20:13.196Z,890
2017-03-16T14:21:23.495Z,875
2017-03-16T14:22:33.756Z,830
2017-03-16T14:23:43.713Z,795
2017-03-16T14:24:53.654Z,785
2017-03-16T14:26:03.605Z,780
2017-03-16T14:27:13.586Z,595
2017-03-16T14:28:23.532Z,530
2017-03-16T14:29:33.792Z,525
2017-03-16T14:30:44.053Z,730
2017-03-16T14:31:54.319Z,760
2017-03-16T14:33:04.576Z,870
2017-03-16T14:34:14.845Z,890
2017-03-16T14:35:25.107Z,870
2017-03-16T14:36:35.369Z,1105
2017-03-16T14:37:45.630Z,1320
2017-03-16T14:38:55.574Z,1155
2017-03-16T14:40:05.519Z,1100
2017-03-16T14:41:15.784Z,1165
2017-03-16T14:42:26.042Z,1080
2017-03-16T14:43:36.310Z,1035
2017-03-16T14:44:46.582Z,1000
2017-03-16T14:45:56.843Z,870
2017-03-16T14:47:07.109Z,485
2017-03-16T14:48:16.750Z,520
2017-03-16T14:49:26.698Z,495
2017-03-16T14:50:36.965Z,545
2017-03-16T14:51:47.233Z,550
2017-03-16T14:52:57.496Z,515
2017-03-16T14:54:07.755Z,995
2017-03-16T14:55:18.021Z,1250
2017-03-16T14:56:28.286Z,1325
2017-03-16T14:57:38.549Z,1210
2017-03-16T14:58:48.850Z,1535
2017-03-16T14:59:59.113Z,1625
2017-03-16T15:01:09.062Z,1015
2017-03-16T15:02:19.328Z,805
2017-03-16T15:03:29.589Z,545
2017-03-16T15:04:39.852Z,940
2017-03-16T15:05:50.115Z,875
2017-03-16T15:07:00.381Z,1450
2017-03-16T15:08:10.646Z,1470
2017-03-16T15:09:20.906Z,1390
2017-03-16T15:10:30.857Z,1335
2017-03-16T15:11:40.807Z,1470
2017-03-16T15:12:51.084Z,1435
2017-03-16T15:14:01.347Z,1440
2017-03-16T15:15:11.303Z,1215
2017-03-16T15:16:20.943Z,1305
2017-03-16T15:17:31.207Z,1300
2017-03-16T15:18:41.165Z,1270
2017-03-16T15:19:51.524Z,1290
2017-03-16T15:21:01.841Z,1260
2017-03-16T15:22:11.809Z,1310
2017-03-16T15:23:22.145Z,1305
2017-03-16T15:24:32.417Z,1155
2017-03-16T15:25:42.683Z,1165
2017-03-16T15:26:52.635Z,1055
2017-03-16T15:28:02.913Z,905
2017-03-16T15:29:13.179Z,450
2017-03-16T15:30:23.441Z,460
2017-03-16T15:31:33.390Z,650
2017-03-16T15:32:43.652Z,1045
2017-03-16T15:33:53.918Z,1035
2017-03-16T15:35:04.184Z,1095
2017-03-16T15:36:14.453Z,1245
2017-03-16T15:37:24.718Z,1100
2017-03-16T15:38:34.983Z,1100
2017-03-16T15:39:45.245Z,940
2017-03-16T15:40:55.511Z,980
2017-03-16T15:42:05.461Z,555
2017-03-16T15:43:15.095Z,470
2017-03-16T15:44:25.354Z,310
2017-03-16T15:45:35.300Z,315
2017-03-16T15:46:45.565Z,285
2017-03-16T15:47:55.519Z,280
2017-03-16T15:49:05.466Z,260
2017-03-16T15:50:15.413Z,260
2017-03-16T15:51:25.359Z,245
2017-03-16T15:52:35.617Z,240
2017-03-16T15:53:45.569Z,240
2017-03-16T15:54:55.831Z,230
2017-03-16T15:56:05.778Z,230
2017-03-16T15:57:16.036Z,230
2017-03-16T15:58:26.299Z,230
2017-03-16T15:59:36.561Z,225
2017-03-16T16:00:46.829Z,235
2017-03-16T16:01:56.460Z,235
2017-03-16T16:03:06.715Z,235
2017-03-16T16:04:16.972Z,225
2017-03-16T16:05:26.918Z,210
2017-03-16T16:06:37.177Z,205
2017-03-16T16:07:47.431Z,200
2017-03-16T16:08:57.688Z,190
2017-03-16T16:10:07.950Z,180
2017-03-16T16:11:18.236Z,165
2017-03-16T16:12:28.506Z,150
2017-03-16T16:13:38.760Z,135
2017-03-16T16:14:48.389Z,125
2017-03-16T16:15:58.653Z,115
2017-03-16T16:17:08.917Z,110
2017-03-16T16:18:19.173Z,110
2017-03-16T16:19:29.434Z,110
2017-03-16T16:20:39.694Z,110
2017-03-16T16:21:49.637Z,110
2017-03-16T16:22:59.894Z,100
2017-03-16T16:24:10.157Z,90
2017-03-16T16:25:20.414Z,90
2017-03-16T16:26:30.675Z,90
2017-03-16T16:27:40.938Z,90
2017-03-16T16:28:50.254Z,85